sensor_id;sensor_type;location;lat;lon;timestamp;pressure;altitude;pressure_sealevel;temperature;humidity
76448;BME280;65284;51.040;13.722;2022-11-20T00:01:12;99648.84;;;-5.20;80.79
76448;BME280;65284;51.040;13.722;2022-11-20T00:03:39;99645.53;;;-5.24;80.46
76448;BME280;65284;51.040;13.722;2022-11-20T00:06:10;99655.97;;;-5.26;80.70
76448;BME280;65284;51.040;13.722;2022-11-20T00:08:36;99655.97;;;-5.26;80.64
76448;BME280;65284;51.040;13.722;2022-11-20T00:11:08;99655.03;;;-5.24;80.31
76448;BME280;65284;51.040;13.722;2022-11-20T00:13:41;99649.16;;;-5.28;80.66
76448;BME280;65284;51.040;13.722;2022-11-20T00:16:12;99648.34;;;-5.29;80.66
76448;BME280;65284;51.040;13.722;2022-11-20T00:18:39;99642.38;;;-5.31;80.25
76448;BME280;65284;51.040;13.722;2022-11-20T00:21:09;99643.22;;;-5.30;80.45
76448;BME280;65284;51.040;13.722;2022-11-20T00:23:36;99643.06;;;-5.27;81.02
76448;BME280;65284;51.040;13.722;2022-11-20T00:26:05;99648.41;;;-5.30;80.55
76448;BME280;65284;51.040;13.722;2022-11-20T00:28:31;99650.09;;;-5.29;80.80
76448;BME280;65284;51.040;13.722;2022-11-20T00:31:06;99646.59;;;-5.28;80.54
76448;BME280;65284;51.040;13.722;2022-11-20T00:33:32;99641.47;;;-5.30;80.47
76448;BME280;65284;51.040;13.722;2022-11-20T00:36:04;99651.91;;;-5.31;81.33
76448;BME280;65284;51.040;13.722;2022-11-20T00:38:31;99656.25;;;-5.32;80.73
76448;BME280;65284;51.040;13.722;2022-11-20T00:40:59;99651.06;;;-5.32;80.98
76448;BME280;65284;51.040;13.722;2022-11-20T00:43:26;99652.75;;;-5.31;80.52
76448;BME280;65284;51.040;13.722;2022-11-20T00:45:58;99657.06;;;-5.31;80.81
76448;BME280;65284;51.040;13.722;2022-11-20T00:48:24;99660.59;;;-5.32;80.87
76448;BME280;65284;51.040;13.722;2022-11-20T00:50:51;99671.91;;;-5.35;80.87
76448;BME280;65284;51.040;13.722;2022-11-20T00:53:17;99672.88;;;-5.37;80.96
76448;BME280;65284;51.040;13.722;2022-11-20T00:55:55;99677.41;;;-5.42;80.02
76448;BME280;65284;51.040;13.722;2022-11-20T00:58:23;99665.59;;;-5.48;80.46
76448;BME280;65284;51.040;13.722;2022-11-20T01:00:50;99673.28;;;-5.46;80.46
76448;BME280;65284;51.040;13.722;2022-11-20T01:03:18;99665.69;;;-5.50;80.33
76448;BME280;65284;51.040;13.722;2022-11-20T01:05:51;99672.72;;;-5.53;80.55
76448;BME280;65284;51.040;13.722;2022-11-20T01:08:18;99665.88;;;-5.54;80.37
76448;BME280;65284;51.040;13.722;2022-11-20T01:10:44;99665.88;;;-5.54;79.92
76448;BME280;65284;51.040;13.722;2022-11-20T01:13:11;99673.63;;;-5.54;80.49
76448;BME280;65284;51.040;13.722;2022-11-20T01:16:15;99676.34;;;-5.57;80.69
76448;BME280;65284;51.040;13.722;2022-11-20T01:18:46;99667.75;;;-5.58;80.07
76448;BME280;65284;51.040;13.722;2022-11-20T01:21:19;99667.88;;;-5.61;80.67
76448;BME280;65284;51.040;13.722;2022-11-20T01:23:47;99668.81;;;-5.62;79.94
76448;BME280;65284;51.040;13.722;2022-11-20T01:26:16;99667.88;;;-5.61;80.18
76448;BME280;65284;51.040;13.722;2022-11-20T01:28:43;99665.31;;;-5.61;80.27
76448;BME280;65284;51.040;13.722;2022-11-20T01:33:39;99658.47;;;-5.62;79.51
76448;BME280;65284;51.040;13.722;2022-11-20T01:36:06;99652.56;;;-5.65;79.29
76448;BME280;65284;51.040;13.722;2022-11-20T01:38:33;99662.97;;;-5.67;79.47
76448;BME280;65284;51.040;13.722;2022-11-20T01:41:00;99656.06;;;-5.66;78.91
76448;BME280;65284;51.040;13.722;2022-11-20T01:43:26;99651.72;;;-5.66;79.05
76448;BME280;65284;51.040;13.722;2022-11-20T01:48:19;99651.84;;;-5.69;79.53
76448;BME280;65284;51.040;13.722;2022-11-20T01:50:49;99649.34;;;-5.70;79.04
76448;BME280;65284;51.040;13.722;2022-11-20T01:53:18;99648.56;;;-5.73;79.29
76448;BME280;65284;51.040;13.722;2022-11-20T01:55:50;99650.31;;;-5.73;79.72
76448;BME280;65284;51.040;13.722;2022-11-20T01:58:20;99647.78;;;-5.75;79.38
76448;BME280;65284;51.040;13.722;2022-11-20T02:00:48;99647.09;;;-5.78;79.13
76448;BME280;65284;51.040;13.722;2022-11-20T02:03:19;99643.59;;;-5.77;79.22
76448;BME280;65284;51.040;13.722;2022-11-20T02:06:10;99641.91;;;-5.78;79.48
76448;BME280;65284;51.040;13.722;2022-11-20T02:08:38;99643.81;;;-5.82;78.83
76448;BME280;65284;51.040;13.722;2022-11-20T02:11:05;99642.06;;;-5.81;78.98
76448;BME280;65284;51.040;13.722;2022-11-20T02:13:33;99647.34;;;-5.84;78.73
76448;BME280;65284;51.040;13.722;2022-11-20T02:16:24;99639.09;;;-5.92;78.80
76448;BME280;65284;51.040;13.722;2022-11-20T02:18:53;99632.28;;;-5.93;80.04
76448;BME280;65284;51.040;13.722;2022-11-20T02:21:51;99620.94;;;-5.91;79.76
76448;BME280;65284;51.040;13.722;2022-11-20T02:24:22;99620.09;;;-5.91;79.65
76448;BME280;65284;51.040;13.722;2022-11-20T02:27:12;99623.56;;;-5.92;80.59
76448;BME280;65284;51.040;13.722;2022-11-20T02:32:30;99624.00;;;-5.83;80.90
76448;BME280;65284;51.040;13.722;2022-11-20T02:34:57;99619.56;;;-5.79;80.96
76448;BME280;65284;51.040;13.722;2022-11-20T02:37:30;99622.16;;;-5.79;81.17
76448;BME280;65284;51.040;13.722;2022-11-20T02:39:57;99623.97;;;-5.81;80.97
76448;BME280;65284;51.040;13.722;2022-11-20T02:42:23;99625.63;;;-5.80;81.00
76448;BME280;65284;51.040;13.722;2022-11-20T02:44:49;99623.88;;;-5.80;81.12
76448;BME280;65284;51.040;13.722;2022-11-20T02:47:16;99621.41;;;-5.83;81.19
76448;BME280;65284;51.040;13.722;2022-11-20T02:49:42;99625.56;;;-5.79;80.81
76448;BME280;65284;51.040;13.722;2022-11-20T02:52:09;99621.41;;;-5.83;80.89
76448;BME280;65284;51.040;13.722;2022-11-20T02:54:35;99623.97;;;-5.81;80.97
76448;BME280;65284;51.040;13.722;2022-11-20T02:57:02;99621.38;;;-5.81;81.38
76448;BME280;65284;51.040;13.722;2022-11-20T02:59:28;99622.34;;;-5.84;81.30
76448;BME280;65284;51.040;13.722;2022-11-20T03:01:54;99614.66;;;-5.85;80.87
76448;BME280;65284;51.040;13.722;2022-11-20T03:04:21;99619.84;;;-5.85;81.05
76448;BME280;65284;51.040;13.722;2022-11-20T03:06:47;99625.88;;;-5.86;81.03
76448;BME280;65284;51.040;13.722;2022-11-20T03:09:14;99621.50;;;-5.84;80.90
76448;BME280;65284;51.040;13.722;2022-11-20T03:11:40;99618.13;;;-5.86;80.77
76448;BME280;65284;51.040;13.722;2022-11-20T03:14:06;99618.13;;;-5.86;80.83
76448;BME280;65284;51.040;13.722;2022-11-20T03:16:33;99612.13;;;-5.87;80.63
76448;BME280;65284;51.040;13.722;2022-11-20T03:18:59;99612.25;;;-5.90;80.51
76448;BME280;65284;51.040;13.722;2022-11-20T03:21:26;99615.94;;;-5.94;79.62
76448;BME280;65284;51.040;13.722;2022-11-20T03:23:54;99615.19;;;-5.98;80.41
76448;BME280;65284;51.040;13.722;2022-11-20T03:26:23;99613.63;;;-6.00;80.54
76448;BME280;65284;51.040;13.722;2022-11-20T03:28:55;99603.34;;;-6.02;79.90
76448;BME280;65284;51.040;13.722;2022-11-20T03:31:26;99603.34;;;-6.02;80.19
76448;BME280;65284;51.040;13.722;2022-11-20T03:33:52;99606.03;;;-6.05;80.46
76448;BME280;65284;51.040;13.722;2022-11-20T03:36:20;99607.81;;;-6.05;80.27
76448;BME280;65284;51.040;13.722;2022-11-20T03:38:48;99596.63;;;-6.06;80.32
76448;BME280;65284;51.040;13.722;2022-11-20T03:41:17;99595.84;;;-6.08;80.56
76448;BME280;65284;51.040;13.722;2022-11-20T03:43:48;99602.81;;;-6.10;80.46
76448;BME280;65284;51.040;13.722;2022-11-20T03:46:15;99603.59;;;-6.08;80.39
76448;BME280;65284;51.040;13.722;2022-11-20T03:48:42;99603.72;;;-6.11;80.42
76448;BME280;65284;51.040;13.722;2022-11-20T03:51:17;99602.81;;;-6.10;80.38
76448;BME280;65284;51.040;13.722;2022-11-20T03:53:46;99607.09;;;-6.09;80.27
76448;BME280;65284;51.040;13.722;2022-11-20T03:56:15;99603.88;;;-6.14;80.36
76448;BME280;65284;51.040;13.722;2022-11-20T03:58:43;99609.03;;;-6.14;80.99
76448;BME280;65284;51.040;13.722;2022-11-20T04:01:15;99612.53;;;-6.15;80.19
76448;BME280;65284;51.040;13.722;2022-11-20T04:03:43;99608.13;;;-6.13;80.31
76448;BME280;65284;51.040;13.722;2022-11-20T04:06:13;99611.53;;;-6.12;80.39
76448;BME280;65284;51.040;13.722;2022-11-20T04:08:40;99596.16;;;-6.15;80.31
76448;BME280;65284;51.040;13.722;2022-11-20T04:11:18;99597.16;;;-6.18;80.08
76448;BME280;65284;51.040;13.722;2022-11-20T04:13:53;99600.50;;;-6.16;80.70
76448;BME280;65284;51.040;13.722;2022-11-20T04:16:21;99594.56;;;-6.18;80.08
76448;BME280;65284;51.040;13.722;2022-11-20T04:18:54;99590.94;;;-6.14;80.32
76448;BME280;65284;51.040;13.722;2022-11-20T04:21:21;99590.41;;;-6.22;80.35
76448;BME280;65284;51.040;13.722;2022-11-20T04:23:50;99586.91;;;-6.21;79.94
76448;BME280;65284;51.040;13.722;2022-11-20T04:26:17;99588.66;;;-6.22;79.90
76448;BME280;65284;51.040;13.722;2022-11-20T04:28:43;99585.13;;;-6.19;80.47
76448;BME280;65284;51.040;13.722;2022-11-20T04:31:13;99582.66;;;-6.22;80.37
76448;BME280;65284;51.040;13.722;2022-11-20T04:33:40;99576.84;;;-6.27;80.22
76448;BME280;65284;51.040;13.722;2022-11-20T04:36:17;99576.00;;;-6.28;80.24
76448;BME280;65284;51.040;13.722;2022-11-20T04:38:44;99570.94;;;-6.29;80.94
76448;BME280;65284;51.040;13.722;2022-11-20T04:41:19;99570.97;;;-6.31;80.36
76448;BME280;65284;51.040;13.722;2022-11-20T04:43:47;99568.47;;;-6.32;79.97
76448;BME280;65284;51.040;13.722;2022-11-20T04:46:15;99565.94;;;-6.34;80.84
76448;BME280;65284;51.040;13.722;2022-11-20T04:48:41;99565.25;;;-6.37;80.36
76448;BME280;65284;51.040;13.722;2022-11-20T04:51:08;99566.88;;;-6.35;80.80
76448;BME280;65284;51.040;13.722;2022-11-20T04:53:34;99565.25;;;-6.37;80.45
76448;BME280;65284;51.040;13.722;2022-11-20T04:56:06;99568.63;;;-6.35;81.08
76448;BME280;65284;51.040;13.722;2022-11-20T04:58:34;99571.94;;;-6.33;81.19
76448;BME280;65284;51.040;13.722;2022-11-20T05:01:12;99574.47;;;-6.32;80.88
76448;BME280;65284;51.040;13.722;2022-11-20T05:03:43;99571.94;;;-6.33;80.98
76448;BME280;65284;51.040;13.722;2022-11-20T05:06:12;99575.44;;;-6.34;81.26
76448;BME280;65284;51.040;13.722;2022-11-20T05:08:39;99580.63;;;-6.34;80.38
76448;BME280;65284;51.040;13.722;2022-11-20T05:11:11;99597.09;;;-6.37;80.26
76448;BME280;65284;51.040;13.722;2022-11-20T05:13:38;99592.75;;;-6.36;79.80
76448;BME280;65284;51.040;13.722;2022-11-20T05:16:10;99583.38;;;-6.39;80.56
76448;BME280;65284;51.040;13.722;2022-11-20T05:18:38;99580.75;;;-6.37;80.13
76448;BME280;65284;51.040;13.722;2022-11-20T05:21:06;99576.75;;;-6.45;80.20
76448;BME280;65284;51.040;13.722;2022-11-20T05:23:33;99578.59;;;-6.48;80.27
76448;BME280;65284;51.040;13.722;2022-11-20T05:26:00;99581.13;;;-6.47;80.34
76448;BME280;65284;51.040;13.722;2022-11-20T05:28:28;99584.72;;;-6.51;80.58
76448;BME280;65284;51.040;13.722;2022-11-20T05:30:54;99582.22;;;-6.52;80.35
76448;BME280;65284;51.040;13.722;2022-11-20T05:33:21;99579.66;;;-6.52;79.88
76448;BME280;65284;51.040;13.722;2022-11-20T05:35:48;99579.56;;;-6.51;79.73
76448;BME280;65284;51.040;13.722;2022-11-20T05:38:14;99582.28;;;-6.54;80.33
76448;BME280;65284;51.040;13.722;2022-11-20T05:40:41;99576.34;;;-6.56;80.23
76448;BME280;65284;51.040;13.722;2022-11-20T05:43:07;99570.28;;;-6.55;80.33
76448;BME280;65284;51.040;13.722;2022-11-20T05:45:34;99566.88;;;-6.55;79.89
76448;BME280;65284;51.040;13.722;2022-11-20T05:48:00;99571.06;;;-6.53;79.92
76448;BME280;65284;51.040;13.722;2022-11-20T05:50:27;99574.78;;;-6.60;79.57
76448;BME280;65284;51.040;13.722;2022-11-20T05:52:54;99571.50;;;-6.64;79.94
76448;BME280;65284;51.040;13.722;2022-11-20T05:55:21;99572.41;;;-6.65;80.04
76448;BME280;65284;51.040;13.722;2022-11-20T05:57:47;99573.25;;;-6.64;79.12
76448;BME280;65284;51.040;13.722;2022-11-20T06:00:14;99562.13;;;-6.66;79.88
76448;BME280;65284;51.040;13.722;2022-11-20T06:02:41;99568.88;;;-6.62;79.82
76448;BME280;65284;51.040;13.722;2022-11-20T06:05:07;99564.84;;;-6.69;79.68
76448;BME280;65284;51.040;13.722;2022-11-20T06:07:34;99568.34;;;-6.70;79.45
76448;BME280;65284;51.040;13.722;2022-11-20T06:10:00;99564.97;;;-6.72;79.48
76448;BME280;65284;51.040;13.722;2022-11-20T06:12:27;99556.47;;;-6.74;79.53
76448;BME280;65284;51.040;13.722;2022-11-20T06:14:53;99555.69;;;-6.76;79.65
76448;BME280;65284;51.040;13.722;2022-11-20T06:17:19;99554.63;;;-6.72;79.74
76448;BME280;65284;51.040;13.722;2022-11-20T06:19:46;99552.97;;;-6.73;79.12
76448;BME280;65284;51.040;13.722;2022-11-20T06:22:13;99547.81;;;-6.73;79.11
76448;BME280;65284;51.040;13.722;2022-11-20T06:24:39;99551.31;;;-6.74;79.50
76448;BME280;65284;51.040;13.722;2022-11-20T06:27:05;99545.22;;;-6.73;79.72
76448;BME280;65284;51.040;13.722;2022-11-20T06:29:32;99556.47;;;-6.74;79.02
76448;BME280;65284;51.040;13.722;2022-11-20T06:31:59;99549.72;;;-6.78;79.34
76448;BME280;65284;51.040;13.722;2022-11-20T06:34:26;99553.09;;;-6.76;79.05
76448;BME280;65284;51.040;13.722;2022-11-20T06:36:52;99546.25;;;-6.77;80.07
76448;BME280;65284;51.040;13.722;2022-11-20T06:39:18;99550.66;;;-6.79;79.42
76448;BME280;65284;51.040;13.722;2022-11-20T06:41:46;99553.34;;;-6.82;79.65
76448;BME280;65284;51.040;13.722;2022-11-20T06:44:12;99557.47;;;-6.78;79.45
76448;BME280;65284;51.040;13.722;2022-11-20T06:46:38;99543.56;;;-6.74;79.48
76448;BME280;65284;51.040;13.722;2022-11-20T06:49:05;99549.34;;;-6.69;79.96
76448;BME280;65284;51.040;13.722;2022-11-20T06:51:32;99547.56;;;-6.67;80.07
76448;BME280;65284;51.040;13.722;2022-11-20T06:53:58;99545.69;;;-6.64;79.65
76448;BME280;65284;51.040;13.722;2022-11-20T06:56:27;99540.47;;;-6.62;79.89
76448;BME280;65284;51.040;13.722;2022-11-20T06:58:54;99536.97;;;-6.61;80.41
76448;BME280;65284;51.040;13.722;2022-11-20T07:01:20;99528.16;;;-6.57;80.07
76448;BME280;65284;51.040;13.722;2022-11-20T07:03:49;99528.78;;;-6.50;81.30
76448;BME280;65284;51.040;13.722;2022-11-20T07:06:19;99535.47;;;-6.46;81.39
76448;BME280;65284;51.040;13.722;2022-11-20T07:08:46;99538.44;;;-6.35;81.89
76448;BME280;65284;51.040;13.722;2022-11-20T07:11:13;99541.84;;;-6.34;81.07
76448;BME280;65284;51.040;13.722;2022-11-20T07:13:39;99542.66;;;-6.32;81.25
76448;BME280;65284;51.040;13.722;2022-11-20T07:16:07;99538.22;;;-6.30;81.11
76448;BME280;65284;51.040;13.722;2022-11-20T07:18:34;99538.31;;;-6.32;81.29
76448;BME280;65284;51.040;13.722;2022-11-20T07:21:05;99537.22;;;-6.26;80.56
76448;BME280;65284;51.040;13.722;2022-11-20T07:23:32;99535.38;;;-6.24;80.21
76448;BME280;65284;51.040;13.722;2022-11-20T07:26:06;99528.53;;;-6.25;79.50
76448;BME280;65284;51.040;13.722;2022-11-20T07:28:33;99531.78;;;-6.20;79.64
76448;BME280;65284;51.040;13.722;2022-11-20T07:31:00;99533.94;;;-6.11;79.29
76448;BME280;65284;51.040;13.722;2022-11-20T07:33:26;99529.75;;;-6.13;78.76
76448;BME280;65284;51.040;13.722;2022-11-20T07:35:53;99535.88;;;-6.16;79.14
76448;BME280;65284;51.040;13.722;2022-11-20T07:38:19;99535.00;;;-6.15;78.89
76448;BME280;65284;51.040;13.722;2022-11-20T07:40:45;99526.97;;;-6.09;79.48
76448;BME280;65284;51.040;13.722;2022-11-20T07:43:12;99527.72;;;-6.07;78.50
76448;BME280;65284;51.040;13.722;2022-11-20T07:45:38;99525.88;;;-6.03;77.64
76448;BME280;65284;51.040;13.722;2022-11-20T07:48:05;99522.41;;;-6.04;78.08
76448;BME280;65284;51.040;13.722;2022-11-20T07:50:31;99524.13;;;-6.03;77.57
76448;BME280;65284;51.040;13.722;2022-11-20T07:53:04;99530.81;;;-5.99;78.09
76448;BME280;65284;51.040;13.722;2022-11-20T07:55:31;99522.91;;;-5.96;78.21
76448;BME280;65284;51.040;13.722;2022-11-20T07:57:58;99519.03;;;-5.68;81.33
76448;BME280;65284;51.040;13.722;2022-11-20T08:00:26;99513.19;;;-4.64;82.38
76448;BME280;65284;51.040;13.722;2022-11-20T08:02:53;99503.88;;;-4.86;77.35
76448;BME280;65284;51.040;13.722;2022-11-20T08:05:20;99508.84;;;-4.98;78.32
76448;BME280;65284;51.040;13.722;2022-11-20T08:07:46;99509.91;;;-5.20;77.52
76448;BME280;65284;51.040;13.722;2022-11-20T08:10:14;99506.97;;;-5.31;77.28
76448;BME280;65284;51.040;13.722;2022-11-20T08:12:49;99509.72;;;-5.34;77.46
76448;BME280;65284;51.040;13.722;2022-11-20T08:15:35;99519.28;;;-5.36;77.90
76448;BME280;65284;51.040;13.722;2022-11-20T08:18:08;99510.75;;;-5.38;77.97
76448;BME280;65284;51.040;13.722;2022-11-20T08:20:55;99512.59;;;-5.40;77.81
76448;BME280;65284;51.040;13.722;2022-11-20T08:23:22;99518.47;;;-5.37;77.50
76448;BME280;65284;51.040;13.722;2022-11-20T08:25:49;99512.34;;;-5.36;77.94
76448;BME280;65284;51.040;13.722;2022-11-20T08:28:17;99514.25;;;-5.20;78.94
76448;BME280;65284;51.040;13.722;2022-11-20T08:30:48;99498.19;;;-4.75;80.89
76448;BME280;65284;51.040;13.722;2022-11-20T08:33:14;99505.34;;;-4.97;77.77
76448;BME280;65284;51.040;13.722;2022-11-20T08:35:41;99509.00;;;-5.01;77.93
76448;BME280;65284;51.040;13.722;2022-11-20T08:38:08;99502.97;;;-5.02;76.99
76448;BME280;65284;51.040;13.722;2022-11-20T08:40:35;99503.13;;;-5.05;77.70
76448;BME280;65284;51.040;13.722;2022-11-20T08:43:01;99509.81;;;-5.01;77.84
76448;BME280;65284;51.040;13.722;2022-11-20T08:45:28;99504.34;;;-4.95;78.48
76448;BME280;65284;51.040;13.722;2022-11-20T08:48:01;99496.22;;;-4.87;77.76
76448;BME280;65284;51.040;13.722;2022-11-20T08:50:27;99497.25;;;-4.74;76.88
76448;BME280;65284;51.040;13.722;2022-11-20T08:52:54;99492.31;;;-4.61;77.64
76448;BME280;65284;51.040;13.722;2022-11-20T08:55:20;99487.81;;;-4.58;77.57
76448;BME280;65284;51.040;13.722;2022-11-20T08:57:47;99485.13;;;-4.56;77.56
76448;BME280;65284;51.040;13.722;2022-11-20T09:00:16;99485.22;;;-4.58;78.14
76448;BME280;65284;51.040;13.722;2022-11-20T09:02:43;99474.91;;;-4.59;78.00
76448;BME280;65284;51.040;13.722;2022-11-20T09:05:09;99473.00;;;-4.55;78.29
76448;BME280;65284;51.040;13.722;2022-11-20T09:07:36;99459.97;;;-4.54;78.34
76448;BME280;65284;51.040;13.722;2022-11-20T09:10:03;99455.47;;;-4.50;78.69
76448;BME280;65284;51.040;13.722;2022-11-20T09:12:49;99462.59;;;-4.38;77.99
76448;BME280;65284;51.040;13.722;2022-11-20T09:15:18;99458.31;;;-4.22;78.81
76448;BME280;65284;51.040;13.722;2022-11-20T09:17:57;99452.94;;;-4.19;78.54
76448;BME280;65284;51.040;13.722;2022-11-20T09:20:25;99447.94;;;-4.22;78.60
76448;BME280;65284;51.040;13.722;2022-11-20T09:22:51;99452.13;;;-4.19;78.35
76448;BME280;65284;51.040;13.722;2022-11-20T09:25:18;99453.47;;;-4.12;78.30
76448;BME280;65284;51.040;13.722;2022-11-20T09:27:44;99452.63;;;-4.13;78.28
76448;BME280;65284;51.040;13.722;2022-11-20T09:30:13;99453.38;;;-4.10;78.23
76448;BME280;65284;51.040;13.722;2022-11-20T09:32:41;99451.47;;;-4.07;78.17
76448;BME280;65284;51.040;13.722;2022-11-20T09:35:08;99451.97;;;-4.00;78.21
76448;BME280;65284;51.040;13.722;2022-11-20T09:37:34;99461.16;;;-3.95;78.15
76448;BME280;65284;51.040;13.722;2022-11-20T09:40:01;99459.25;;;-3.91;78.16
76448;BME280;65284;51.040;13.722;2022-11-20T09:48:12;99461.53;;;-3.69;77.03
76448;BME280;65284;51.040;13.722;2022-11-20T09:50:57;99455.50;;;-3.70;76.96
76448;BME280;65284;51.040;13.722;2022-11-20T09:53:46;99462.34;;;-3.69;77.32
76448;BME280;65284;51.040;13.722;2022-11-20T09:56:20;99454.28;;;-3.64;76.82
76448;BME280;65284;51.040;13.722;2022-11-20T09:58:51;99455.88;;;-3.61;77.46
76448;BME280;65284;51.040;13.722;2022-11-20T10:01:21;99448.88;;;-3.59;77.15
76448;BME280;65284;51.040;13.722;2022-11-20T10:04:03;99442.56;;;-3.39;75.79
76448;BME280;65284;51.040;13.722;2022-11-20T10:06:42;99438.03;;;-3.36;76.08
76448;BME280;65284;51.040;13.722;2022-11-20T10:09:20;99434.56;;;-3.21;75.46
76448;BME280;65284;51.040;13.722;2022-11-20T10:12:13;99435.78;;;-3.12;75.03
76448;BME280;65284;51.040;13.722;2022-11-20T10:14:58;99435.31;;;-3.18;74.80
76448;BME280;65284;51.040;13.722;2022-11-20T10:25:39;99413.81;;;-3.06;74.96
76448;BME280;65284;51.040;13.722;2022-11-20T10:28:28;99411.97;;;-3.04;75.25
76448;BME280;65284;51.040;13.722;2022-11-20T10:31:00;99408.38;;;-3.02;74.99
76448;BME280;65284;51.040;13.722;2022-11-20T10:33:36;99408.25;;;-3.00;74.86
76448;BME280;65284;51.040;13.722;2022-11-20T10:36:28;99414.94;;;-2.96;74.70
76448;BME280;65284;51.040;13.722;2022-11-20T10:39:20;99412.38;;;-2.82;73.76
76448;BME280;65284;51.040;13.722;2022-11-20T10:41:51;99409.97;;;-2.70;74.11
76448;BME280;65284;51.040;13.722;2022-11-20T10:44:30;99416.00;;;-2.41;73.18
76448;BME280;65284;51.040;13.722;2022-11-20T10:47:22;99421.84;;;-2.38;74.15
76448;BME280;65284;51.040;13.722;2022-11-20T10:49:51;99425.28;;;-2.23;73.26
76448;BME280;65284;51.040;13.722;2022-11-20T10:54:59;99400.91;;;-2.08;72.89
76448;BME280;65284;51.040;13.722;2022-11-20T10:57:51;99405.22;;;-1.79;71.81
76448;BME280;65284;51.040;13.722;2022-11-20T11:00:18;99401.81;;;-1.80;72.34
76448;BME280;65284;51.040;13.722;2022-11-20T11:02:53;99396.69;;;-1.81;72.50
76448;BME280;65284;51.040;13.722;2022-11-20T11:05:41;99405.97;;;-1.77;72.86
76448;BME280;65284;51.040;13.722;2022-11-20T11:08:12;99398.88;;;-1.75;72.34
76448;BME280;65284;51.040;13.722;2022-11-20T11:15:51;99394.13;;;-1.42;72.32
76448;BME280;65284;51.040;13.722;2022-11-20T11:18:30;99376.66;;;-1.01;72.58
76448;BME280;65284;51.040;13.722;2022-11-20T11:21:00;99392.31;;;-1.14;72.15
76448;BME280;65284;51.040;13.722;2022-11-20T11:26:00;99377.72;;;-0.78;71.54
76448;BME280;65284;51.040;13.722;2022-11-20T11:28:28;99375.13;;;-0.91;72.16
76448;BME280;65284;51.040;13.722;2022-11-20T11:30:55;99365.75;;;-0.94;72.66
76448;BME280;65284;51.040;13.722;2022-11-20T11:33:31;99358.75;;;-0.80;72.19
76448;BME280;65284;51.040;13.722;2022-11-20T11:36:02;99363.00;;;-0.92;72.57
76448;BME280;65284;51.040;13.722;2022-11-20T11:43:55;99354.91;;;-1.00;74.27
76448;BME280;65284;51.040;13.722;2022-11-20T11:46:50;99344.78;;;-1.05;74.27
76448;BME280;65284;51.040;13.722;2022-11-20T11:49:19;99335.94;;;-1.02;74.73
76448;BME280;65284;51.040;13.722;2022-11-20T11:54:23;99324.03;;;-0.94;74.25
76448;BME280;65284;51.040;13.722;2022-11-20T11:56:51;99326.66;;;-0.94;74.35
76448;BME280;65284;51.040;13.722;2022-11-20T11:59:32;99326.84;;;-0.97;74.35
76448;BME280;65284;51.040;13.722;2022-11-20T12:02:04;99329.69;;;-1.00;74.70
76448;BME280;65284;51.040;13.722;2022-11-20T12:04:53;99325.69;;;-0.93;74.80
76448;BME280;65284;51.040;13.722;2022-11-20T12:07:39;99329.25;;;-0.94;74.97
76448;BME280;65284;51.040;13.722;2022-11-20T12:10:19;99326.09;;;-0.86;74.59
76448;BME280;65284;51.040;13.722;2022-11-20T12:12:53;99322.56;;;-0.85;74.92
76448;BME280;65284;51.040;13.722;2022-11-20T12:15:29;99316.97;;;-0.92;75.34
76448;BME280;65284;51.040;13.722;2022-11-20T12:17:56;99312.56;;;-0.91;75.07
76448;BME280;65284;51.040;13.722;2022-11-20T12:20:27;99303.59;;;-0.87;75.16
76448;BME280;65284;51.040;13.722;2022-11-20T12:23:02;99311.84;;;-0.93;75.81
76448;BME280;65284;51.040;13.722;2022-11-20T12:25:34;99315.06;;;-0.89;75.45
76448;BME280;65284;51.040;13.722;2022-11-20T12:28:43;99328.09;;;-0.89;75.40
76448;BME280;65284;51.040;13.722;2022-11-20T12:31:35;99323.09;;;-0.93;75.13
76448;BME280;65284;51.040;13.722;2022-11-20T12:34:12;99330.91;;;-0.93;75.51
76448;BME280;65284;51.040;13.722;2022-11-20T12:36:54;99326.13;;;-0.99;75.89
76448;BME280;65284;51.040;13.722;2022-11-20T12:39:34;99317.16;;;-0.95;76.13
76448;BME280;65284;51.040;13.722;2022-11-20T12:48:25;99328.50;;;-0.83;76.44
76448;BME280;65284;51.040;13.722;2022-11-20T12:56:38;99316.31;;;-0.82;76.95
76448;BME280;65284;51.040;13.722;2022-11-20T12:59:31;99305.47;;;-0.76;76.60
76448;BME280;65284;51.040;13.722;2022-11-20T13:02:18;99314.22;;;-0.77;76.70
76448;BME280;65284;51.040;13.722;2022-11-20T13:07:32;99321.72;;;-0.73;76.98
76448;BME280;65284;51.040;13.722;2022-11-20T13:10:00;99304.81;;;-0.67;77.44
76448;BME280;65284;51.040;13.722;2022-11-20T13:12:33;99313.16;;;-0.62;76.86
76448;BME280;65284;51.040;13.722;2022-11-20T13:15:20;99306.28;;;-0.63;77.39
76448;BME280;65284;51.040;13.722;2022-11-20T13:17:57;99305.78;;;-0.68;77.86
76448;BME280;65284;51.040;13.722;2022-11-20T13:20:26;99302.31;;;-0.56;77.27
76448;BME280;65284;51.040;13.722;2022-11-20T13:22:54;99296.75;;;-0.51;77.17
76448;BME280;65284;51.040;13.722;2022-11-20T13:25:28;99294.56;;;-0.57;77.54
76448;BME280;65284;51.040;13.722;2022-11-20T13:27:57;99294.75;;;-0.48;77.56
76448;BME280;65284;51.040;13.722;2022-11-20T13:30:28;99279.97;;;-0.47;77.33
76448;BME280;65284;51.040;13.722;2022-11-20T13:33:06;99287.16;;;-0.51;77.32
76448;BME280;65284;51.040;13.722;2022-11-20T13:35:37;99293.09;;;-0.49;77.76
76448;BME280;65284;51.040;13.722;2022-11-20T13:38:11;99287.06;;;-0.49;77.12
76448;BME280;65284;51.040;13.722;2022-11-20T13:41:00;99279.91;;;-0.34;76.71
76448;BME280;65284;51.040;13.722;2022-11-20T13:43:51;99293.72;;;-0.45;76.46
76448;BME280;65284;51.040;13.722;2022-11-20T13:46:18;99287.44;;;-0.42;76.39
76448;BME280;65284;51.040;13.722;2022-11-20T13:48:51;99281.72;;;-0.48;77.07
76448;BME280;65284;51.040;13.722;2022-11-20T13:51:29;99288.41;;;-0.43;76.82
76448;BME280;65284;51.040;13.722;2022-11-20T13:54:09;99283.88;;;-0.41;76.50
76448;BME280;65284;51.040;13.722;2022-11-20T13:56:48;99278.47;;;-0.38;76.54
76448;BME280;65284;51.040;13.722;2022-11-20T13:59:32;99290.78;;;-0.40;76.31
76448;BME280;65284;51.040;13.722;2022-11-20T14:02:17;99287.66;;;-0.46;76.50
76448;BME280;65284;51.040;13.722;2022-11-20T14:04:49;99301.00;;;-0.37;76.13